sensor_id;sensor_type;location;lat;lon;timestamp;temperature;humidity
64817;DHT22;53289;45.602;11.904;2022-10-28T00:01:16;11.90;79.90
64817;DHT22;53289;45.602;11.904;2022-10-28T00:03:47;11.90;80.00
64817;DHT22;53289;45.602;11.904;2022-10-28T00:06:19;11.80;80.00
64817;DHT22;53289;45.602;11.904;2022-10-28T00:08:46;11.80;80.10
64817;DHT22;53289;45.602;11.904;2022-10-28T00:13:42;11.80;80.10
64817;DHT22;53289;45.602;11.904;2022-10-28T00:18:38;11.70;80.20
64817;DHT22;53289;45.602;11.904;2022-10-28T00:21:15;11.70;80.20
64817;DHT22;53289;45.602;11.904;2022-10-28T00:23:41;11.70;80.20
64817;DHT22;53289;45.602;11.904;2022-10-28T00:28:46;11.70;80.30
64817;DHT22;53289;45.602;11.904;2022-10-28T00:31:14;11.70;80.60
64817;DHT22;53289;45.602;11.904;2022-10-28T00:33:41;11.70;80.50
64817;DHT22;53289;45.602;11.904;2022-10-28T00:38:38;11.60;80.60
64817;DHT22;53289;45.602;11.904;2022-10-28T00:41:05;11.60;80.60
64817;DHT22;53289;45.602;11.904;2022-10-28T00:43:35;11.60;80.80
64817;DHT22;53289;45.602;11.904;2022-10-28T00:46:02;11.60;80.70
64817;DHT22;53289;45.602;11.904;2022-10-28T00:48:31;11.60;80.80
64817;DHT22;53289;45.602;11.904;2022-10-28T00:50:57;11.60;80.90
64817;DHT22;53289;45.602;11.904;2022-10-28T00:53:27;11.50;80.90
64817;DHT22;53289;45.602;11.904;2022-10-28T00:55:55;11.50;80.90
64817;DHT22;53289;45.602;11.904;2022-10-28T00:58:23;11.50;81.00
64817;DHT22;53289;45.602;11.904;2022-10-28T01:00:49;11.50;81.00
64817;DHT22;53289;45.602;11.904;2022-10-28T01:03:16;11.50;81.10
64817;DHT22;53289;45.602;11.904;2022-10-28T01:05:45;11.50;81.10
64817;DHT22;53289;45.602;11.904;2022-10-28T01:08:12;11.50;81.20
64817;DHT22;53289;45.602;11.904;2022-10-28T01:10:55;11.50;81.30
64817;DHT22;53289;45.602;11.904;2022-10-28T01:16:34;11.50;81.30
64817;DHT22;53289;45.602;11.904;2022-10-28T01:30:25;11.40;81.40
64817;DHT22;53289;45.602;11.904;2022-10-28T01:33:00;11.50;81.30
64817;DHT22;53289;45.602;11.904;2022-10-28T01:35:51;11.50;81.40
64817;DHT22;53289;45.602;11.904;2022-10-28T01:38:31;11.40;81.40
64817;DHT22;53289;45.602;11.904;2022-10-28T01:46:36;11.40;81.40
64817;DHT22;53289;45.602;11.904;2022-10-28T01:49:09;11.30;81.70
64817;DHT22;53289;45.602;11.904;2022-10-28T01:51:44;11.30;81.70
64817;DHT22;53289;45.602;11.904;2022-10-28T01:54:14;11.20;81.50
64817;DHT22;53289;45.602;11.904;2022-10-28T01:56:42;11.20;81.50
64817;DHT22;53289;45.602;11.904;2022-10-28T01:59:13;11.20;81.50
64817;DHT22;53289;45.602;11.904;2022-10-28T02:01:40;11.20;81.50
64817;DHT22;53289;45.602;11.904;2022-10-28T02:04:06;11.10;81.50
64817;DHT22;53289;45.602;11.904;2022-10-28T02:06:33;11.10;81.40
64817;DHT22;53289;45.602;11.904;2022-10-28T02:14:31;11.10;81.40
64817;DHT22;53289;45.602;11.904;2022-10-28T02:22:06;11.00;81.50
64817;DHT22;53289;45.602;11.904;2022-10-28T02:24:37;10.90;81.70
64817;DHT22;53289;45.602;11.904;2022-10-28T02:27:19;10.90;81.50
64817;DHT22;53289;45.602;11.904;2022-10-28T02:29:56;10.90;81.60
64817;DHT22;53289;45.602;11.904;2022-10-28T02:32:25;10.80;81.70
64817;DHT22;53289;45.602;11.904;2022-10-28T02:34:54;10.80;81.80
64817;DHT22;53289;45.602;11.904;2022-10-28T02:37:28;10.80;81.90
64817;DHT22;53289;45.602;11.904;2022-10-28T02:40:05;10.80;81.90
64817;DHT22;53289;45.602;11.904;2022-10-28T02:42:35;10.80;81.90
64817;DHT22;53289;45.602;11.904;2022-10-28T02:45:12;10.80;82.20
64817;DHT22;53289;45.602;11.904;2022-10-28T02:47:45;10.70;82.20
64817;DHT22;53289;45.602;11.904;2022-10-28T02:50:16;10.70;82.10
64817;DHT22;53289;45.602;11.904;2022-10-28T02:52:47;10.70;82.10
64817;DHT22;53289;45.602;11.904;2022-10-28T02:55:14;10.60;82.20
64817;DHT22;53289;45.602;11.904;2022-10-28T02:57:42;10.60;82.40
64817;DHT22;53289;45.602;11.904;2022-10-28T03:00:13;10.60;82.30
64817;DHT22;53289;45.602;11.904;2022-10-28T03:02:40;10.60;82.20
64817;DHT22;53289;45.602;11.904;2022-10-28T03:05:06;10.60;82.40
64817;DHT22;53289;45.602;11.904;2022-10-28T03:07:32;10.50;82.30
64817;DHT22;53289;45.602;11.904;2022-10-28T03:09:58;10.50;82.30
64817;DHT22;53289;45.602;11.904;2022-10-28T03:12:24;10.50;82.30
64817;DHT22;53289;45.602;11.904;2022-10-28T03:14:50;10.50;82.40
64817;DHT22;53289;45.602;11.904;2022-10-28T03:17:16;10.50;82.50
64817;DHT22;53289;45.602;11.904;2022-10-28T03:19:42;10.50;82.50
64817;DHT22;53289;45.602;11.904;2022-10-28T03:22:08;10.50;82.50
64817;DHT22;53289;45.602;11.904;2022-10-28T03:24:34;10.40;82.60
64817;DHT22;53289;45.602;11.904;2022-10-28T03:26:59;10.50;82.70
64817;DHT22;53289;45.602;11.904;2022-10-28T03:29:25;10.40;82.60
64817;DHT22;53289;45.602;11.904;2022-10-28T03:31:51;10.40;82.60
64817;DHT22;53289;45.602;11.904;2022-10-28T03:34:17;10.40;82.60
64817;DHT22;53289;45.602;11.904;2022-10-28T03:36:43;10.40;82.60
64817;DHT22;53289;45.602;11.904;2022-10-28T03:39:09;10.40;82.60
64817;DHT22;53289;45.602;11.904;2022-10-28T03:41:37;10.30;82.40
64817;DHT22;53289;45.602;11.904;2022-10-28T03:44:04;10.30;82.40
64817;DHT22;53289;45.602;11.904;2022-10-28T03:46:30;10.30;82.40
64817;DHT22;53289;45.602;11.904;2022-10-28T03:48:56;10.30;82.50
64817;DHT22;53289;45.602;11.904;2022-10-28T03:51:22;10.30;82.50
64817;DHT22;53289;45.602;11.904;2022-10-28T03:53:47;10.30;82.40
64817;DHT22;53289;45.602;11.904;2022-10-28T03:56:13;10.30;82.50
64817;DHT22;53289;45.602;11.904;2022-10-28T03:58:39;10.30;82.60
64817;DHT22;53289;45.602;11.904;2022-10-28T04:01:05;10.30;82.50
64817;DHT22;53289;45.602;11.904;2022-10-28T04:03:31;10.30;82.70
64817;DHT22;53289;45.602;11.904;2022-10-28T04:05:57;10.30;82.70
64817;DHT22;53289;45.602;11.904;2022-10-28T04:08:23;10.30;82.60
64817;DHT22;53289;45.602;11.904;2022-10-28T04:10:50;10.30;82.80
64817;DHT22;53289;45.602;11.904;2022-10-28T04:13:16;10.30;82.70
64817;DHT22;53289;45.602;11.904;2022-10-28T04:15:42;10.30;82.80
64817;DHT22;53289;45.602;11.904;2022-10-28T04:18:08;10.30;82.90
64817;DHT22;53289;45.602;11.904;2022-10-28T04:20:35;10.30;83.00
64817;DHT22;53289;45.602;11.904;2022-10-28T04:23:01;10.30;82.90
64817;DHT22;53289;45.602;11.904;2022-10-28T04:25:27;10.30;82.90
64817;DHT22;53289;45.602;11.904;2022-10-28T04:27:53;10.30;83.00
64817;DHT22;53289;45.602;11.904;2022-10-28T04:30:19;10.30;83.10
64817;DHT22;53289;45.602;11.904;2022-10-28T04:32:45;10.30;83.00
64817;DHT22;53289;45.602;11.904;2022-10-28T04:35:12;10.30;83.10
64817;DHT22;53289;45.602;11.904;2022-10-28T04:37:40;10.30;83.20
64817;DHT22;53289;45.602;11.904;2022-10-28T04:40:07;10.30;83.10
64817;DHT22;53289;45.602;11.904;2022-10-28T04:42:33;10.30;83.10
64817;DHT22;53289;45.602;11.904;2022-10-28T04:45:00;10.30;83.10
64817;DHT22;53289;45.602;11.904;2022-10-28T04:47:26;10.20;83.00
64817;DHT22;53289;45.602;11.904;2022-10-28T04:49:52;10.30;83.10
64817;DHT22;53289;45.602;11.904;2022-10-28T04:52:19;10.30;82.90
64817;DHT22;53289;45.602;11.904;2022-10-28T04:54:45;10.30;82.90
64817;DHT22;53289;45.602;11.904;2022-10-28T04:57:11;10.20;82.80
64817;DHT22;53289;45.602;11.904;2022-10-28T04:59:37;10.20;82.80
64817;DHT22;53289;45.602;11.904;2022-10-28T05:02:03;10.20;82.80
64817;DHT22;53289;45.602;11.904;2022-10-28T05:04:29;10.10;82.90
64817;DHT22;53289;45.602;11.904;2022-10-28T05:06:54;10.10;83.00
64817;DHT22;53289;45.602;11.904;2022-10-28T05:09:20;10.10;83.00
64817;DHT22;53289;45.602;11.904;2022-10-28T05:11:46;10.10;83.00
64817;DHT22;53289;45.602;11.904;2022-10-28T05:14:12;10.10;82.90
64817;DHT22;53289;45.602;11.904;2022-10-28T05:16:38;10.00;82.90
64817;DHT22;53289;45.602;11.904;2022-10-28T05:19:04;10.10;82.80
64817;DHT22;53289;45.602;11.904;2022-10-28T05:21:30;10.00;82.80
64817;DHT22;53289;45.602;11.904;2022-10-28T05:23:56;10.00;82.90
64817;DHT22;53289;45.602;11.904;2022-10-28T05:26:22;10.00;83.00
64817;DHT22;53289;45.602;11.904;2022-10-28T05:28:51;10.00;83.00
64817;DHT22;53289;45.602;11.904;2022-10-28T05:31:17;10.00;83.00
64817;DHT22;53289;45.602;11.904;2022-10-28T05:33:43;10.00;83.10
64817;DHT22;53289;45.602;11.904;2022-10-28T05:36:09;10.00;83.10
64817;DHT22;53289;45.602;11.904;2022-10-28T05:38:35;10.00;83.00
64817;DHT22;53289;45.602;11.904;2022-10-28T05:41:01;10.00;83.00
64817;DHT22;53289;45.602;11.904;2022-10-28T05:43:28;10.00;83.00
64817;DHT22;53289;45.602;11.904;2022-10-28T05:45:55;9.90;82.90
64817;DHT22;53289;45.602;11.904;2022-10-28T05:48:23;10.00;83.10
64817;DHT22;53289;45.602;11.904;2022-10-28T05:50:49;9.90;83.10
64817;DHT22;53289;45.602;11.904;2022-10-28T05:53:15;9.90;83.00
64817;DHT22;53289;45.602;11.904;2022-10-28T05:55:41;9.90;83.10
64817;DHT22;53289;45.602;11.904;2022-10-28T05:58:07;9.90;83.10
64817;DHT22;53289;45.602;11.904;2022-10-28T06:00:35;9.90;83.10
64817;DHT22;53289;45.602;11.904;2022-10-28T06:03:09;9.90;83.20
64817;DHT22;53289;45.602;11.904;2022-10-28T06:05:45;9.90;83.20
64817;DHT22;53289;45.602;11.904;2022-10-28T06:08:12;9.90;83.20
64817;DHT22;53289;45.602;11.904;2022-10-28T06:10:39;10.00;83.20
64817;DHT22;53289;45.602;11.904;2022-10-28T06:13:06;10.00;83.20
64817;DHT22;53289;45.602;11.904;2022-10-28T06:15:33;10.10;83.40
64817;DHT22;53289;45.602;11.904;2022-10-28T06:17:59;10.20;83.70
64817;DHT22;53289;45.602;11.904;2022-10-28T06:20:25;10.30;83.90
64817;DHT22;53289;45.602;11.904;2022-10-28T06:22:53;10.40;84.10
64817;DHT22;53289;45.602;11.904;2022-10-28T06:25:21;10.50;84.20
64817;DHT22;53289;45.602;11.904;2022-10-28T06:27:58;10.60;84.50
64817;DHT22;53289;45.602;11.904;2022-10-28T06:30:26;10.80;84.80
64817;DHT22;53289;45.602;11.904;2022-10-28T06:32:54;10.90;84.80
64817;DHT22;53289;45.602;11.904;2022-10-28T06:35:20;11.10;84.90
64817;DHT22;53289;45.602;11.904;2022-10-28T06:37:46;11.30;84.90
64817;DHT22;53289;45.602;11.904;2022-10-28T06:40:12;11.50;84.90
64817;DHT22;53289;45.602;11.904;2022-10-28T06:42:38;11.70;84.90
64817;DHT22;53289;45.602;11.904;2022-10-28T06:45:05;11.90;84.90
64817;DHT22;53289;45.602;11.904;2022-10-28T06:47:31;12.10;84.80
64817;DHT22;53289;45.602;11.904;2022-10-28T06:49:57;12.40;84.70
64817;DHT22;53289;45.602;11.904;2022-10-28T06:52:24;12.60;84.50
64817;DHT22;53289;45.602;11.904;2022-10-28T06:54:50;12.90;84.20
64817;DHT22;53289;45.602;11.904;2022-10-28T06:57:16;13.10;83.80
64817;DHT22;53289;45.602;11.904;2022-10-28T06:59:42;13.40;83.20
64817;DHT22;53289;45.602;11.904;2022-10-28T07:02:11;13.70;82.60
64817;DHT22;53289;45.602;11.904;2022-10-28T07:04:37;14.00;81.80
64817;DHT22;53289;45.602;11.904;2022-10-28T07:07:03;14.30;81.30
64817;DHT22;53289;45.602;11.904;2022-10-28T07:09:30;14.60;80.70
64817;DHT22;53289;45.602;11.904;2022-10-28T07:11:55;14.90;80.20
64817;DHT22;53289;45.602;11.904;2022-10-28T07:14:21;15.20;79.70
64817;DHT22;53289;45.602;11.904;2022-10-28T07:16:47;15.50;79.10
64817;DHT22;53289;45.602;11.904;2022-10-28T07:19:13;15.80;78.50
64817;DHT22;53289;45.602;11.904;2022-10-28T07:21:39;16.00;78.00
64817;DHT22;53289;45.602;11.904;2022-10-28T07:24:06;16.20;77.40
64817;DHT22;53289;45.602;11.904;2022-10-28T07:26:32;16.30;76.90
64817;DHT22;53289;45.602;11.904;2022-10-28T07:28:57;16.40;76.60
64817;DHT22;53289;45.602;11.904;2022-10-28T07:31:23;16.40;76.30
64817;DHT22;53289;45.602;11.904;2022-10-28T07:33:53;16.50;76.30
64817;DHT22;53289;45.602;11.904;2022-10-28T07:36:19;16.50;76.10
64817;DHT22;53289;45.602;11.904;2022-10-28T07:38:48;16.50;76.30
64817;DHT22;53289;45.602;11.904;2022-10-28T07:41:17;16.50;76.20
64817;DHT22;53289;45.602;11.904;2022-10-28T07:43:43;16.60;76.00
64817;DHT22;53289;45.602;11.904;2022-10-28T07:46:09;16.60;75.80
64817;DHT22;53289;45.602;11.904;2022-10-28T07:48:36;16.50;75.80
64817;DHT22;53289;45.602;11.904;2022-10-28T07:51:04;16.50;75.70
64817;DHT22;53289;45.602;11.904;2022-10-28T07:53:31;16.40;75.80
64817;DHT22;53289;45.602;11.904;2022-10-28T07:55:59;16.40;76.00
64817;DHT22;53289;45.602;11.904;2022-10-28T07:58:26;16.30;76.00
64817;DHT22;53289;45.602;11.904;2022-10-28T08:00:52;16.30;76.00
64817;DHT22;53289;45.602;11.904;2022-10-28T08:03:19;16.30;76.10
64817;DHT22;53289;45.602;11.904;2022-10-28T08:05:46;16.30;76.10
64817;DHT22;53289;45.602;11.904;2022-10-28T08:08:12;16.30;76.10
64817;DHT22;53289;45.602;11.904;2022-10-28T08:10:38;16.30;76.00
64817;DHT22;53289;45.602;11.904;2022-10-28T08:13:04;16.40;76.00
64817;DHT22;53289;45.602;11.904;2022-10-28T08:15:31;16.40;76.00
64817;DHT22;53289;45.602;11.904;2022-10-28T08:17:57;16.50;75.60
64817;DHT22;53289;45.602;11.904;2022-10-28T08:20:24;16.60;75.30
64817;DHT22;53289;45.602;11.904;2022-10-28T08:22:49;16.70;75.10
64817;DHT22;53289;45.602;11.904;2022-10-28T08:25:15;16.90;74.90
64817;DHT22;53289;45.602;11.904;2022-10-28T08:27:41;17.00;74.70
64817;DHT22;53289;45.602;11.904;2022-10-28T08:30:08;17.20;74.10
64817;DHT22;53289;45.602;11.904;2022-10-28T08:32:35;17.40;73.80
64817;DHT22;53289;45.602;11.904;2022-10-28T08:35:01;17.60;73.10
64817;DHT22;53289;45.602;11.904;2022-10-28T08:37:27;17.90;72.80
64817;DHT22;53289;45.602;11.904;2022-10-28T08:39:53;18.20;72.50
64817;DHT22;53289;45.602;11.904;2022-10-28T08:42:45;18.40;72.10
64817;DHT22;53289;45.602;11.904;2022-10-28T08:45:39;18.70;71.90
64817;DHT22;53289;45.602;11.904;2022-10-28T08:48:19;19.00;71.90
64817;DHT22;53289;45.602;11.904;2022-10-28T08:50:54;19.40;71.10
64817;DHT22;53289;45.602;11.904;2022-10-28T08:53:28;19.80;70.10
64817;DHT22;53289;45.602;11.904;2022-10-28T08:59:26;20.20;68.70
64817;DHT22;53289;45.602;11.904;2022-10-28T09:02:00;20.40;68.40
64817;DHT22;53289;45.602;11.904;2022-10-28T09:04:42;20.50;68.50
64817;DHT22;53289;45.602;11.904;2022-10-28T09:07:17;20.70;68.50
64817;DHT22;53289;45.602;11.904;2022-10-28T09:09:44;21.00;68.10
64817;DHT22;53289;45.602;11.904;2022-10-28T09:20:28;21.90;64.70
64817;DHT22;53289;45.602;11.904;2022-10-28T09:22:59;22.00;64.30
64817;DHT22;53289;45.602;11.904;2022-10-28T09:31:12;22.50;63.60
64817;DHT22;53289;45.602;11.904;2022-10-28T09:36:13;22.90;62.70
64817;DHT22;53289;45.602;11.904;2022-10-28T09:38:42;23.10;62.10
64817;DHT22;53289;45.602;11.904;2022-10-28T09:41:24;23.40;61.90
64817;DHT22;53289;45.602;11.904;2022-10-28T09:44:02;23.60;60.90
64817;DHT22;53289;45.602;11.904;2022-10-28T09:46:32;23.80;61.00
64817;DHT22;53289;45.602;11.904;2022-10-28T09:49:04;24.00;60.60
64817;DHT22;53289;45.602;11.904;2022-10-28T09:54:03;24.40;58.60
64817;DHT22;53289;45.602;11.904;2022-10-28T09:56:29;24.60;58.60
64817;DHT22;53289;45.602;11.904;2022-10-28T09:59:00;24.70;57.80
64817;DHT22;53289;45.602;11.904;2022-10-28T10:01:32;24.90;57.20
64817;DHT22;53289;45.602;11.904;2022-10-28T10:03:58;25.20;56.30
64817;DHT22;53289;45.602;11.904;2022-10-28T10:06:35;25.50;55.70
64817;DHT22;53289;45.602;11.904;2022-10-28T10:09:02;25.90;55.10
64817;DHT22;53289;45.602;11.904;2022-10-28T10:11:39;26.10;53.90
64817;DHT22;53289;45.602;11.904;2022-10-28T10:14:14;26.30;53.20
64817;DHT22;53289;45.602;11.904;2022-10-28T10:16:57;26.40;52.40
64817;DHT22;53289;45.602;11.904;2022-10-28T10:19:24;26.50;52.70
64817;DHT22;53289;45.602;11.904;2022-10-28T10:21:54;26.90;52.40
64817;DHT22;53289;45.602;11.904;2022-10-28T10:24:33;27.40;50.70
64817;DHT22;53289;45.602;11.904;2022-10-28T10:27:20;27.90;48.50
64817;DHT22;53289;45.602;11.904;2022-10-28T10:29:51;28.20;48.20
64817;DHT22;53289;45.602;11.904;2022-10-28T10:32:35;28.30;47.00
64817;DHT22;53289;45.602;11.904;2022-10-28T10:37:43;28.40;47.40
64817;DHT22;53289;45.602;11.904;2022-10-28T10:42:43;28.50;46.10
64817;DHT22;53289;45.602;11.904;2022-10-28T10:45:29;28.50;46.90
64817;DHT22;53289;45.602;11.904;2022-10-28T10:48:14;28.70;47.00
64817;DHT22;53289;45.602;11.904;2022-10-28T10:50:45;29.00;45.50
64817;DHT22;53289;45.602;11.904;2022-10-28T10:53:31;29.10;45.40
64817;DHT22;53289;45.602;11.904;2022-10-28T10:56:06;28.90;44.80
64817;DHT22;53289;45.602;11.904;2022-10-28T10:58:47;28.70;45.70
64817;DHT22;53289;45.602;11.904;2022-10-28T11:01:19;28.60;45.40
64817;DHT22;53289;45.602;11.904;2022-10-28T11:03:50;28.50;45.60
64817;DHT22;53289;45.602;11.904;2022-10-28T11:06:51;28.30;45.80
64817;DHT22;53289;45.602;11.904;2022-10-28T11:09:32;28.10;43.20
64817;DHT22;53289;45.602;11.904;2022-10-28T11:11:59;28.20;45.70
64817;DHT22;53289;45.602;11.904;2022-10-28T11:14:30;28.20;46.40
64817;DHT22;53289;45.602;11.904;2022-10-28T11:17:01;28.40;45.50
64817;DHT22;53289;45.602;11.904;2022-10-28T11:27:33;28.00;46.60
64817;DHT22;53289;45.602;11.904;2022-10-28T11:30:11;28.10;46.70
64817;DHT22;53289;45.602;11.904;2022-10-28T11:35:58;28.70;45.40
64817;DHT22;53289;45.602;11.904;2022-10-28T11:40:59;29.40;44.90
64817;DHT22;53289;45.602;11.904;2022-10-28T11:56:46;29.60;44.50
64817;DHT22;53289;45.602;11.904;2022-10-28T12:02:22;29.40;44.30
64817;DHT22;53289;45.602;11.904;2022-10-28T12:14:34;30.10;43.70
64817;DHT22;53289;45.602;11.904;2022-10-28T12:19:23;29.90;43.80
64817;DHT22;53289;45.602;11.904;2022-10-28T12:22:05;30.10;44.10
64817;DHT22;53289;45.602;11.904;2022-10-28T12:24:36;30.60;42.40
64817;DHT22;53289;45.602;11.904;2022-10-28T12:27:14;31.00;42.20
64817;DHT22;53289;45.602;11.904;2022-10-28T12:29:48;31.50;41.20
64817;DHT22;53289;45.602;11.904;2022-10-28T12:32:25;31.80;40.40
64817;DHT22;53289;45.602;11.904;2022-10-28T12:35:02;32.10;40.00
64817;DHT22;53289;45.602;11.904;2022-10-28T12:37:40;32.40;38.90
64817;DHT22;53289;45.602;11.904;2022-10-28T12:40:19;32.70;39.10
64817;DHT22;53289;45.602;11.904;2022-10-28T12:42:57;32.90;38.60
64817;DHT22;53289;45.602;11.904;2022-10-28T12:45:24;33.10;38.70
64817;DHT22;53289;45.602;11.904;2022-10-28T12:50:52;33.40;37.70
64817;DHT22;53289;45.602;11.904;2022-10-28T12:53:45;33.20;38.20
64817;DHT22;53289;45.602;11.904;2022-10-28T12:56:38;33.20;38.60
64817;DHT22;53289;45.602;11.904;2022-10-28T12:59:12;33.10;38.30
64817;DHT22;53289;45.602;11.904;2022-10-28T13:01:45;32.80;39.00
64817;DHT22;53289;45.602;11.904;2022-10-28T13:04:12;32.50;39.20
64817;DHT22;53289;45.602;11.904;2022-10-28T13:23:00;32.80;39.40
64817;DHT22;53289;45.602;11.904;2022-10-28T13:25:40;32.80;38.60
64817;DHT22;53289;45.602;11.904;2022-10-28T13:28:19;32.80;37.70
64817;DHT22;53289;45.602;11.904;2022-10-28T13:30:59;32.70;38.50
64817;DHT22;53289;45.602;11.904;2022-10-28T13:33:28;32.70;39.00
64817;DHT22;53289;45.602;11.904;2022-10-28T13:36:08;32.70;38.90
64817;DHT22;53289;45.602;11.904;2022-10-28T13:38:35;32.50;39.40
64817;DHT22;53289;45.602;11.904;2022-10-28T13:49:32;32.30;39.60
64817;DHT22;53289;45.602;11.904;2022-10-28T13:57:45;32.50;39.50
64817;DHT22;53289;45.602;11.904;2022-10-28T14:03:05;32.60;39.40
64817;DHT22;53289;45.602;11.904;2022-10-28T14:08:59;32.50;39.30
64817;DHT22;53289;45.602;11.904;2022-10-28T14:11:20;32.50;39.20
64817;DHT22;53289;45.602;11.904;2022-10-28T14:13:54;32.50;39.20
64817;DHT22;53289;45.602;11.904;2022-10-28T14:16:38;32.50;38.60
64817;DHT22;53289;45.602;11.904;2022-10-28T14:22:04;32.20;39.30
64817;DHT22;53289;45.602;11.904;2022-10-28T14:24:43;32.10;39.50
64817;DHT22;53289;45.602;11.904;2022-10-28T14:27:24;31.90;40.00
64817;DHT22;53289;45.602;11.904;2022-10-28T14:35:41;30.90;41.50
64817;DHT22;53289;45.602;11.904;2022-10-28T14:43:39;30.10;43.00
64817;DHT22;53289;45.602;11.904;2022-10-28T14:48:57;29.60;43.40
64817;DHT22;53289;45.602;11.904;2022-10-28T14:51:26;29.40;44.30
64817;DHT22;53289;45.602;11.904;2022-10-28T14:54:00;29.10;44.90
64817;DHT22;53289;45.602;11.904;2022-10-28T14:56:28;28.90;44.90
64817;DHT22;53289;45.602;11.904;2022-10-28T14:59:02;28.60;45.50
64817;DHT22;53289;45.602;11.904;2022-10-28T15:04:20;28.20;45.60
64817;DHT22;53289;45.602;11.904;2022-10-28T15:06:49;28.00;46.50
64817;DHT22;53289;45.602;11.904;2022-10-28T15:09:34;27.80;46.90
64817;DHT22;53289;45.602;11.904;2022-10-28T15:12:12;27.60;47.50
64817;DHT22;53289;45.602;11.904;2022-10-28T15:14:44;27.40;47.80
64817;DHT22;53289;45.602;11.904;2022-10-28T15:17:22;27.20;48.30
64817;DHT22;53289;45.602;11.904;2022-10-28T15:19:51;27.10;48.70
64817;DHT22;53289;45.602;11.904;2022-10-28T15:27:28;26.50;50.30
64817;DHT22;53289;45.602;11.904;2022-10-28T15:29:54;26.30;50.80
64817;DHT22;53289;45.602;11.904;2022-10-28T15:34:47;25.90;51.90
64817;DHT22;53289;45.602;11.904;2022-10-28T15:37:22;25.70;52.30
64817;DHT22;53289;45.602;11.904;2022-10-28T15:39:49;25.50;52.70
64817;DHT22;53289;45.602;11.904;2022-10-28T15:44:56;25.20;53.20
64817;DHT22;53289;45.602;11.904;2022-10-28T15:47:31;25.00;53.50
64817;DHT22;53289;45.602;11.904;2022-10-28T15:50:30;24.80;53.80
64817;DHT22;53289;45.602;11.904;2022-10-28T15:55:38;24.40;54.60
64817;DHT22;53289;45.602;11.904;2022-10-28T16:00:55;24.00;55.40
64817;DHT22;53289;45.602;11.904;2022-10-28T16:03:46;23.80;56.00
64817;DHT22;53289;45.602;11.904;2022-10-28T16:11:33;23.10;57.70
64817;DHT22;53289;45.602;11.904;2022-10-28T16:14:22;22.80;58.00
64817;DHT22;53289;45.602;11.904;2022-10-28T16:16:51;22.60;58.50
64817;DHT22;53289;45.602;11.904;2022-10-28T16:19:26;22.40;59.10
64817;DHT22;53289;45.602;11.904;2022-10-28T16:21:53;22.20;59.60
64817;DHT22;53289;45.602;11.904;2022-10-28T16:24:20;22.00;59.90
64817;DHT22;53289;45.602;11.904;2022-10-28T16:26:46;21.90;60.30
64817;DHT22;53289;45.602;11.904;2022-10-28T16:29:12;21.70;60.70
64817;DHT22;53289;45.602;11.904;2022-10-28T16:31:40;21.60;61.00
64817;DHT22;53289;45.602;11.904;2022-10-28T16:34:12;21.50;61.30
64817;DHT22;53289;45.602;11.904;2022-10-28T16:36:39;21.30;61.60
64817;DHT22;53289;45.602;11.904;2022-10-28T16:39:10;21.20;61.90
64817;DHT22;53289;45.602;11.904;2022-10-28T16:41:37;21.00;62.10
64817;DHT22;53289;45.602;11.904;2022-10-28T16:44:15;20.90;62.50
64817;DHT22;53289;45.602;11.904;2022-10-28T16:46:42;20.80;62.90
64817;DHT22;53289;45.602;11.904;2022-10-28T16:49:08;20.60;63.20
64817;DHT22;53289;45.602;11.904;2022-10-28T16:51:34;20.50;63.50
64817;DHT22;53289;45.602;11.904;2022-10-28T16:54:00;20.40;63.60
64817;DHT22;53289;45.602;11.904;2022-10-28T16:56:26;20.30;63.90
64817;DHT22;53289;45.602;11.904;2022-10-28T16:58:52;20.20;64.20
64817;DHT22;53289;45.602;11.904;2022-10-28T17:01:19;20.10;64.40
64817;DHT22;53289;45.602;11.904;2022-10-28T17:03:46;20.00;64.40
64817;DHT22;53289;45.602;11.904;2022-10-28T17:06:12;19.90;64.60
64817;DHT22;53289;45.602;11.904;2022-10-28T17:08:38;19.80;64.80
64817;DHT22;53289;45.602;11.904;2022-10-28T17:11:04;19.70;65.20
64817;DHT22;53289;45.602;11.904;2022-10-28T17:13:30;19.60;65.50
64817;DHT22;53289;45.602;11.904;2022-10-28T17:15:56;19.40;65.80
64817;DHT22;53289;45.602;11.904;2022-10-28T17:18:21;19.40;65.90
64817;DHT22;53289;45.602;11.904;2022-10-28T17:20:58;19.30;66.10
64817;DHT22;53289;45.602;11.904;2022-10-28T17:23:25;19.20;66.50
64817;DHT22;53289;45.602;11.904;2022-10-28T17:26:01;19.10;66.80
64817;DHT22;53289;45.602;11.904;2022-10-28T17:28:27;19.00;66.80
64817;DHT22;53289;45.602;11.904;2022-10-28T17:30:59;18.90;66.90
64817;DHT22;53289;45.602;11.904;2022-10-28T17:33:25;18.90;67.10
64817;DHT22;53289;45.602;11.904;2022-10-28T17:35:51;18.80;67.40
64817;DHT22;53289;45.602;11.904;2022-10-28T17:38:17;18.70;67.90
64817;DHT22;53289;45.602;11.904;2022-10-28T17:40:43;18.50;68.00
64817;DHT22;53289;45.602;11.904;2022-10-28T17:43:09;18.50;67.90
64817;DHT22;53289;45.602;11.904;2022-10-28T17:45:35;18.40;68.20
64817;DHT22;53289;45.602;11.904;2022-10-28T17:48:01;18.20;68.60
64817;DHT22;53289;45.602;11.904;2022-10-28T17:50:27;18.00;69.00
64817;DHT22;53289;45.602;11.904;2022-10-28T17:52:53;17.90;69.20
64817;DHT22;53289;45.602;11.904;2022-10-28T17:55:19;17.90;69.40
64817;DHT22;53289;45.602;11.904;2022-10-28T17:57:44;17.90;69.50
64817;DHT22;53289;45.602;11.904;2022-10-28T18:00:11;17.80;69.90
64817;DHT22;53289;45.602;11.904;2022-10-28T18:02:38;17.70;70.00
64817;DHT22;53289;45.602;11.904;2022-10-28T18:05:05;17.70;70.20
64817;DHT22;53289;45.602;11.904;2022-10-28T18:07:31;17.60;70.10
64817;DHT22;53289;45.602;11.904;2022-10-28T18:09:57;17.60;70.10
64817;DHT22;53289;45.602;11.904;2022-10-28T18:12:23;17.50;70.30
64817;DHT22;53289;45.602;11.904;2022-10-28T18:14:49;17.40;70.40
64817;DHT22;53289;45.602;11.904;2022-10-28T18:17:14;17.40;70.50
64817;DHT22;53289;45.602;11.904;2022-10-28T18:19:42;17.30;70.90
64817;DHT22;53289;45.602;11.904;2022-10-28T18:22:08;17.20;70.80
64817;DHT22;53289;45.602;11.904;2022-10-28T18:24:34;17.20;70.90
64817;DHT22;53289;45.602;11.904;2022-10-28T18:27:00;17.10;71.20
64817;DHT22;53289;45.602;11.904;2022-10-28T18:29:26;17.00;71.40
64817;DHT22;53289;45.602;11.904;2022-10-28T18:31:52;16.90;71.40
64817;DHT22;53289;45.602;11.904;2022-10-28T18:34:18;16.90;71.70
64817;DHT22;53289;45.602;11.904;2022-10-28T18:36:45;16.80;71.90
64817;DHT22;53289;45.602;11.904;2022-10-28T18:39:11;16.70;72.00
64817;DHT22;53289;45.602;11.904;2022-10-28T18:41:38;16.60;72.00
64817;DHT22;53289;45.602;11.904;2022-10-28T18:44:14;16.60;72.20